Time;durP1;ratioP1;P1;durP2;ratioP2;P2;SDS_P1;SDS_P2;PMS_P1;PMS_P2;Temp;Humidity;BMP_temperature;BMP_pressure;BME280_temperature;BME280_humidity;BME280_pressure;Samples;Min_cycle;Max_cycle;Signal;HPM_P1;HPM_P2
2023/09/21 00:00:20;;;;;;;3.47;0.93;;;19.20;99.90;;;;;;5060772;28;20040;-58
2023/09/21 00:02:51;;;;;;;2.63;1.05;;;19.30;99.90;;;;;;5059660;28;20043;-58
2023/09/21 00:05:21;;;;;;;1.48;0.60;;;19.40;99.90;;;;;;5058240;28;20525;-54
2023/09/21 00:07:47;;;;;;;3.13;1.30;;;19.40;99.90;;;;;;5063693;28;20570;-58
2023/09/21 00:10:12;;;;;;;1.40;0.70;;;19.40;99.90;;;;;;5060423;28;20108;-57
2023/09/21 00:12:39;;;;;;;4.20;0.82;;;19.30;99.90;;;;;;5062169;28;20575;-57
2023/09/21 00:15:06;;;;;;;3.15;1.15;;;19.20;99.90;;;;;;5059960;28;20578;-55
2023/09/21 00:17:34;;;;;;;2.58;0.98;;;19.00;99.90;;;;;;5063430;28;20110;-56
2023/09/21 00:20:01;;;;;;;7.22;1.15;;;18.90;99.90;;;;;;5062855;28;20562;-57
2023/09/21 00:22:27;;;;;;;3.67;1.45;;;18.80;99.90;;;;;;5062355;28;20073;-58
2023/09/21 00:24:52;;;;;;;;;;;18.70;99.90;;;;;;5062061;28;20429;-53
2023/09/21 00:27:18;;;;;;;6.60;1.17;;;18.50;99.90;;;;;;5060519;28;20007;-55
2023/09/21 00:29:49;;;;;;;4.95;1.10;;;18.40;99.90;;;;;;5062140;28;20083;-57
2023/09/21 00:32:14;;;;;;;6.22;1.20;;;18.30;99.90;;;;;;5060764;28;20044;-56
2023/09/21 00:34:40;;;;;;;2.85;0.95;;;18.30;99.90;;;;;;5066414;28;20036;-58
2023/09/21 00:37:07;;;;;;;2.85;1.13;;;18.20;99.90;;;;;;5067313;28;20063;-58
2023/09/21 00:39:34;;;;;;;4.50;1.38;;;18.10;99.90;;;;;;5061048;28;20043;-56
2023/09/21 00:42:00;;;;;;;3.13;1.25;;;18.00;99.90;;;;;;5058949;28;20374;-58
2023/09/21 00:44:26;;;;;;;5.00;0.82;;;18.00;99.90;;;;;;5062283;28;20514;-56
2023/09/21 00:46:52;;;;;;;;;;;18.00;99.90;;;;;;5062315;28;20044;-55
2023/09/21 00:49:18;;;;;;;6.28;1.55;;;17.90;99.90;;;;;;5060804;28;20094;-56
2023/09/21 00:51:45;;;;;;;5.20;1.08;;;17.90;99.90;;;;;;5063362;28;20067;-55
2023/09/21 00:54:12;;;;;;;3.80;1.02;;;17.90;99.90;;;;;;5060019;28;20037;-57
2023/09/21 00:56:39;;;;;;;2.80;1.10;;;17.90;99.90;;;;;;5056294;28;20040;-55
2023/09/21 00:59:06;;;;;;;2.17;0.80;;;18.00;99.90;;;;;;5060387;28;20549;-57
2023/09/21 01:01:33;;;;;;;4.60;1.15;;;18.00;99.90;;;;;;5060895;28;20033;-57
2023/09/21 01:04:06;;;;;;;2.17;0.93;;;18.10;99.90;;;;;;5059924;28;20044;-56
2023/09/21 01:06:32;;;;;;;4.38;1.27;;;18.20;99.90;;;;;;5062481;28;20040;-55
2023/09/21 01:08:57;;;;;;;;;;;18.20;99.90;;;;;;5061539;28;20078;-56
2023/09/21 01:11:24;;;;;;;3.42;1.05;;;18.30;99.90;;;;;;5061517;28;19948;-55
2023/09/21 01:13:51;;;;;;;2.10;0.70;;;18.30;99.90;;;;;;5062804;28;20036;-54
2023/09/21 01:16:18;;;;;;;1.80;0.70;;;18.30;99.90;;;;;;5058910;28;20041;-57
2023/09/21 01:18:44;;;;;;;3.15;0.52;;;18.50;99.90;;;;;;5063765;28;20043;-55
2023/09/21 01:21:12;;;;;;;3.03;0.95;;;18.50;99.90;;;;;;5060050;28;20036;-54
2023/09/21 01:23:45;;;;;;;2.95;0.82;;;18.50;99.90;;;;;;5056473;28;20463;-56
2023/09/21 01:26:16;;;;;;;3.97;0.85;;;18.50;99.90;;;;;;5060182;28;20107;-56
2023/09/21 01:28:42;;;;;;;3.40;0.90;;;18.50;99.90;;;;;;5062951;28;20505;-56
2023/09/21 01:31:13;;;;;;;2.42;0.80;;;18.60;99.90;;;;;;5058197;28;20084;-55
2023/09/21 01:33:39;;;;;;;2.42;0.75;;;18.60;99.90;;;;;;5056497;28;20055;-55
2023/09/21 01:36:08;;;;;;;;;;;18.70;99.90;;;;;;5061181;28;20282;-56
2023/09/21 01:38:34;;;;;;;4.72;0.80;;;18.70;99.90;;;;;;5061254;28;20398;-55
2023/09/21 01:41:00;;;;;;;1.58;0.80;;;18.80;99.90;;;;;;5060752;28;20043;-55
2023/09/21 01:43:26;;;;;;;1.90;0.70;;;18.90;99.90;;;;;;5061354;28;20033;-53
2023/09/21 01:45:52;;;;;;;2.58;0.80;;;18.90;99.90;;;;;;5061862;28;20034;-56
2023/09/21 01:48:18;;;;;;;4.57;0.68;;;18.90;99.90;;;;;;5059149;28;20048;-55
2023/09/21 01:50:47;;;;;;;1.17;0.70;;;19.00;99.90;;;;;;5062427;28;20051;-57
2023/09/21 01:53:17;;;;;;;3.22;0.75;;;19.00;99.90;;;;;;5059744;28;20075;-56
2023/09/21 01:55:44;;;;;;;1.77;0.75;;;19.00;99.90;;;;;;5063211;28;20048;-57
2023/09/21 01:58:11;;;;;;;6.10;0.98;;;19.00;99.90;;;;;;5058664;28;20045;-56
2023/09/21 02:00:46;;;;;;;1.50;0.90;;;19.00;99.90;;;;;;5055105;28;20108;-57
2023/09/21 02:03:13;;;;;;;2.70;0.45;;;19.10;99.90;;;;;;5058454;28;20037;-57
2023/09/21 02:05:40;;;;;;;2.50;0.75;;;19.00;99.90;;;;;;5062422;28;20562;-57
2023/09/21 02:08:07;;;;;;;3.72;0.90;;;19.10;99.90;;;;;;5060559;28;20044;-55
2023/09/21 02:10:33;;;;;;;3.28;1.10;;;19.10;99.90;;;;;;5062109;28;20055;-57
2023/09/21 02:13:00;;;;;;;1.77;0.73;;;19.10;99.90;;;;;;5060820;28;20040;-57
2023/09/21 02:15:27;;;;;;;2.50;0.55;;;19.20;99.90;;;;;;5061607;28;20047;-55
2023/09/21 02:17:55;;;;;;;3.38;0.57;;;19.20;99.90;;;;;;5062065;28;20037;-57
2023/09/21 02:20:22;;;;;;;0.90;0.50;;;19.20;99.90;;;;;;5060799;28;20040;-56
2023/09/21 02:22:50;;;;;;;3.47;0.93;;;19.20;99.90;;;;;;5062082;28;20038;-58
2023/09/21 02:25:17;;;;;;;2.85;0.70;;;19.40;99.90;;;;;;5059556;28;20025;-57
2023/09/21 02:27:47;;;;;;;2.35;0.68;;;19.40;99.90;;;;;;5064191;28;20418;-58
2023/09/21 02:30:15;;;;;;;2.05;0.63;;;19.50;99.90;;;;;;5063147;28;20029;-58
2023/09/21 02:32:41;;;;;;;3.47;0.60;;;19.50;99.90;;;;;;5059083;28;20116;-57
2023/09/21 02:35:16;;;;;;;2.17;0.55;;;19.50;99.90;;;;;;5054476;28;20131;-57
2023/09/21 02:37:46;;;;;;;0.80;0.47;;;19.50;99.90;;;;;;5057231;28;20404;-53
2023/09/21 02:40:19;;;;;;;4.18;0.50;;;19.40;99.90;;;;;;5059447;28;20041;-55
2023/09/21 02:42:46;;;;;;;2.20;0.80;;;19.40;99.90;;;;;;5057939;28;20091;-55
2023/09/21 02:45:12;;;;;;;1.80;0.63;;;19.40;99.90;;;;;;5059731;28;20091;-55
2023/09/21 02:47:41;;;;;;;2.15;0.63;;;19.40;99.90;;;;;;5056433;28;20064;-53
2023/09/21 02:50:25;;;;;;;2.92;0.50;;;19.40;99.90;;;;;;5059943;28;20111;-55
2023/09/21 02:52:54;;;;;;;4.45;0.88;;;19.40;99.90;;;;;;5059325;28;20582;-56
2023/09/21 02:55:26;;;;;;;2.75;1.02;;;19.40;99.90;;;;;;5060204;28;20496;-56
2023/09/21 02:58:09;;;;;;;3.53;0.70;;;19.40;99.90;;;;;;5059907;28;20036;-58
2023/09/21 03:00:40;;;;;;;1.25;0.50;;;19.40;99.90;;;;;;5059901;28;20458;-54
2023/09/21 03:03:12;;;;;;;2.97;0.77;;;19.40;99.90;;;;;;5061534;28;20477;-52
2023/09/21 03:05:41;;;;;;;3.08;0.70;;;19.40;99.90;;;;;;5059256;28;20036;-55
2023/09/21 03:08:13;;;;;;;1.40;0.65;;;19.40;99.90;;;;;;5062598;28;20036;-56
2023/09/21 03:10:40;;;;;;;1.10;0.50;;;19.40;99.90;;;;;;5059089;28;20079;-58
2023/09/21 03:13:06;;;;;;;2.70;0.85;;;19.40;99.90;;;;;;5064129;28;20044;-54
2023/09/21 03:15:36;;;;;;;1.63;0.63;;;19.40;99.90;;;;;;5065568;28;20041;-56
2023/09/21 03:18:07;;;;;;;1.88;0.98;;;19.40;99.90;;;;;;5064249;28;20056;-57
2023/09/21 03:20:34;;;;;;;6.63;1.17;;;19.40;99.90;;;;;;5065119;28;20044;-57
2023/09/21 03:23:05;;;;;;;1.35;0.70;;;19.40;99.90;;;;;;5064497;28;20036;-58
2023/09/21 03:25:42;;;;;;;3.03;0.73;;;19.40;99.90;;;;;;5065225;28;20044;-57
2023/09/21 03:28:13;;;;;;;3.80;0.77;;;19.40;99.90;;;;;;5063539;28;20454;-55
2023/09/21 03:30:50;;;;;;;1.40;0.88;;;19.40;99.90;;;;;;5057800;28;20120;-57
2023/09/21 03:33:18;;;;;;;6.07;0.95;;;19.40;99.90;;;;;;5062966;28;20037;-57
2023/09/21 03:35:44;;;;;;;2.25;0.85;;;19.30;99.90;;;;;;5064004;28;20101;-54
2023/09/21 03:38:12;;;;;;;;;;;19.30;99.90;;;;;;5058353;28;20044;-57
2023/09/21 03:40:38;;;;;;;1.13;0.50;;;19.30;99.90;;;;;;5056805;28;19955;-58
2023/09/21 03:43:03;;;;;;;2.92;0.80;;;19.20;99.90;;;;;;5061948;28;20029;-56
2023/09/21 03:45:31;;;;;;;2.55;1.05;;;19.20;99.90;;;;;;5061598;28;20518;-58
2023/09/21 03:47:56;;;;;;;;;;;19.20;99.90;;;;;;5065638;28;20487;-55
2023/09/21 03:50:27;;;;;;;2.38;0.60;;;19.20;99.90;;;;;;5063867;28;20240;-51
2023/09/21 03:52:53;;;;;;;1.45;0.45;;;19.10;99.90;;;;;;5065262;28;20108;-56
2023/09/21 03:55:20;;;;;;;4.13;0.65;;;19.20;99.90;;;;;;5063132;28;20116;-55
2023/09/21 03:57:46;;;;;;;2.30;0.77;;;19.20;99.90;;;;;;5064464;28;20036;-54
2023/09/21 04:02:54;;;;;;;2.60;0.68;;;19.20;99.90;;;;;;5064153;28;20068;-56
2023/09/21 04:05:23;;;;;;;3.50;0.77;;;19.20;99.90;;;;;;5061185;28;20028;-54
2023/09/21 04:07:49;;;;;;;4.95;0.70;;;19.20;99.90;;;;;;5064031;28;20085;-55
2023/09/21 04:10:15;;;;;;;0.95;0.50;;;19.20;99.90;;;;;;5060741;28;20488;-56
2023/09/21 04:12:41;;;;;;;;;;;19.20;99.90;;;;;;5065770;28;20044;-57
2023/09/21 04:15:08;;;;;;;1.90;0.77;;;19.10;99.90;;;;;;5063498;28;19939;-52
2023/09/21 04:17:35;;;;;;;2.83;0.88;;;19.10;99.90;;;;;;5064933;28;20441;-58
2023/09/21 04:20:09;;;;;;;5.82;0.60;;;19.10;99.90;;;;;;5063659;28;20068;-55
2023/09/21 04:22:35;;;;;;;3.03;0.90;;;19.20;99.90;;;;;;5064614;28;20048;-56
2023/09/21 04:25:07;;;;;;;5.32;0.82;;;19.10;99.90;;;;;;5063682;28;20028;-56
2023/09/21 04:27:34;;;;;;;2.20;0.68;;;19.10;99.90;;;;;;5063417;28;20032;-56
2023/09/21 04:30:04;;;;;;;3.42;0.50;;;19.10;99.90;;;;;;5063546;28;20036;-56
2023/09/21 04:32:29;;;;;;;4.50;1.40;;;19.10;99.90;;;;;;5063902;28;20069;-55
2023/09/21 04:34:55;;;;;;;1.23;0.55;;;19.10;99.90;;;;;;5064463;28;20064;-57
2023/09/21 04:37:21;;;;;;;1.70;0.63;;;19.10;99.90;;;;;;5062178;28;20044;-56
2023/09/21 04:39:49;;;;;;;2.10;0.90;;;19.00;99.90;;;;;;5063517;28;20028;-58
2023/09/21 04:42:14;;;;;;;3.95;0.50;;;19.00;99.90;;;;;;5062173;28;20040;-56
2023/09/21 04:44:40;;;;;;;2.85;0.60;;;19.00;99.90;;;;;;5058448;28;20032;-56
2023/09/21 04:47:06;;;;;;;2.88;0.95;;;19.00;99.90;;;;;;5054622;28;20471;-56
2023/09/21 04:49:35;;;;;;;1.60;0.82;;;19.00;99.90;;;;;;5052518;28;20314;-57
2023/09/21 04:52:03;;;;;;;2.92;0.90;;;19.00;99.90;;;;;;5061223;28;20582;-54
2023/09/21 04:54:29;;;;;;;3.72;0.82;;;19.00;99.90;;;;;;5064832;28;20045;-57
2023/09/21 04:56:54;;;;;;;1.70;0.60;;;19.00;99.90;;;;;;5066189;28;20045;-56
2023/09/21 04:59:20;;;;;;;2.58;1.15;;;19.00;99.90;;;;;;5062149;28;20407;-57
2023/09/21 05:01:49;;;;;;;;;;;19.00;99.90;;;;;;5065405;28;20460;-52
2023/09/21 05:04:14;;;;;;;3.65;0.68;;;19.00;99.90;;;;;;5060839;28;20003;-55
2023/09/21 05:06:40;;;;;;;3.55;0.80;;;19.00;99.90;;;;;;5064041;28;20438;-55
2023/09/21 05:09:07;;;;;;;4.75;1.10;;;19.00;99.90;;;;;;5062908;28;20048;-57
2023/09/21 05:11:38;;;;;;;1.65;0.80;;;19.00;99.90;;;;;;5064066;28;20461;-57
2023/09/21 05:14:05;;;;;;;2.35;0.82;;;18.90;99.90;;;;;;5061791;28;20414;-56
2023/09/21 05:16:32;;;;;;;1.65;0.98;;;18.90;99.90;;;;;;5062282;28;20053;-56
2023/09/21 05:18:58;;;;;;;3.50;1.35;;;18.90;99.90;;;;;;5063352;28;20040;-56
2023/09/21 05:21:23;;;;;;;4.13;0.93;;;18.90;99.90;;;;;;5062716;28;20086;-56
2023/09/21 05:23:49;;;;;;;2.03;1.02;;;18.90;99.90;;;;;;5064315;28;20111;-57
2023/09/21 05:26:15;;;;;;;2.55;0.90;;;18.90;99.90;;;;;;5061038;28;20063;-57
2023/09/21 05:28:40;;;;;;;2.03;0.82;;;18.90;99.90;;;;;;5064117;28;20029;-56
2023/09/21 05:31:09;;;;;;;5.05;0.80;;;18.90;99.90;;;;;;5062181;28;20040;-57
2023/09/21 05:33:38;;;;;;;3.78;0.65;;;18.90;99.90;;;;;;5064047;28;20040;-57
2023/09/21 05:36:07;;;;;;;2.10;0.55;;;18.90;99.90;;;;;;5061502;28;20033;-56
2023/09/21 05:38:33;;;;;;;3.83;1.00;;;18.90;99.90;;;;;;5063733;28;20041;-56
2023/09/21 05:41:06;;;;;;;1.90;0.60;;;19.00;99.90;;;;;;5062038;28;20036;-55
2023/09/21 05:43:31;;;;;;;1.25;0.57;;;19.00;99.90;;;;;;5063566;28;20040;-56
2023/09/21 05:45:57;;;;;;;2.42;0.90;;;18.90;99.90;;;;;;5062861;28;20402;-57
2023/09/21 05:48:23;;;;;;;3.85;1.20;;;19.00;99.90;;;;;;5061902;28;20170;-54
2023/09/21 05:50:49;;;;;;;1.45;0.70;;;19.10;99.90;;;;;;5064137;28;20040;-55
2023/09/21 05:53:15;;;;;;;;;;;19.10;99.90;;;;;;5057483;28;20463;-57
2023/09/21 05:55:43;;;;;;;5.88;1.13;;;19.30;99.90;;;;;;5064974;28;19917;-58
2023/09/21 05:58:09;;;;;;;2.72;0.88;;;19.40;99.90;;;;;;5059739;28;20515;-57
2023/09/21 06:00:35;;;;;;;1.15;0.50;;;19.60;99.90;;;;;;5061374;28;20111;-56
2023/09/21 06:03:00;;;;;;;2.05;0.63;;;19.80;99.90;;;;;;5063921;28;20044;-57
2023/09/21 06:05:27;;;;;;;2.10;1.00;;;19.90;99.90;;;;;;5064766;28;20047;-56
2023/09/21 06:07:53;;;;;;;2.83;0.60;;;20.00;99.90;;;;;;5061482;28;20029;-55
2023/09/21 06:10:19;;;;;;;4.55;1.15;;;20.10;99.90;;;;;;5058388;28;20518;-54
2023/09/21 06:12:44;;;;;;;;;;;20.10;99.90;;;;;;5056604;28;20108;-54
2023/09/21 06:15:10;;;;;;;3.83;0.80;;;20.20;99.90;;;;;;5055437;28;19970;-56
2023/09/21 06:17:36;;;;;;;;;;;20.30;99.90;;;;;;5048341;28;20460;-55
2023/09/21 06:20:03;;;;;;;3.05;0.63;;;20.40;99.90;;;;;;5052854;28;19917;-54
2023/09/21 06:22:31;;;;;;;2.78;0.43;;;20.50;99.90;;;;;;5054962;28;20083;-54
2023/09/21 06:24:57;;;;;;;6.03;0.88;;;20.50;99.90;;;;;;5060028;28;20041;-56
2023/09/21 06:27:23;;;;;;;;;;;20.50;99.90;;;;;;5062385;28;20044;-55
2023/09/21 06:29:49;;;;;;;3.88;1.08;;;20.60;99.90;;;;;;5052895;28;19920;-58
2023/09/21 06:32:15;;;;;;;5.38;0.45;;;20.60;99.90;;;;;;5052625;28;20123;-57
2023/09/21 06:34:42;;;;;;;;;;;20.60;99.90;;;;;;5056205;28;20068;-58
2023/09/21 06:37:08;;;;;;;5.50;0.70;;;20.60;99.90;;;;;;5048305;28;19981;-58
2023/09/21 06:39:33;;;;;;;1.15;0.60;;;20.60;99.90;;;;;;5057154;28;20076;-58
2023/09/21 06:41:59;;;;;;;2.42;0.70;;;20.50;99.90;;;;;;5063145;28;20064;-56
2023/09/21 06:44:28;;;;;;;;;;;20.40;99.90;;;;;;5066470;28;20033;-57
2023/09/21 06:46:54;;;;;;;2.30;0.95;;;20.40;99.90;;;;;;5068219;28;19924;-58
2023/09/21 06:49:21;;;;;;;1.80;0.70;;;20.30;99.90;;;;;;5052183;28;20033;-57
2023/09/21 06:51:49;;;;;;;1.90;1.00;;;20.20;99.90;;;;;;5061580;28;20067;-56
2023/09/21 06:54:15;;;;;;;3.60;0.70;;;20.20;99.90;;;;;;5065417;28;20040;-57
2023/09/21 06:56:41;;;;;;;4.38;1.02;;;20.10;99.90;;;;;;5066320;28;20044;-56
2023/09/21 06:59:07;;;;;;;3.75;0.95;;;20.10;99.90;;;;;;5052211;28;20033;-58
2023/09/21 07:01:34;;;;;;;6.57;0.77;;;20.00;99.90;;;;;;5062225;28;20128;-58
2023/09/21 07:04:00;;;;;;;3.28;0.60;;;20.00;99.90;;;;;;5059904;28;20560;-57
2023/09/21 07:06:25;;;;;;;;;;;20.00;99.90;;;;;;5057265;28;20341;-57
2023/09/21 07:08:52;;;;;;;5.15;0.68;;;20.00;99.90;;;;;;5067405;28;19916;-56
2023/09/21 07:11:21;;;;;;;2.85;0.70;;;19.90;99.90;;;;;;5064611;28;20077;-57
2023/09/21 07:13:47;;;;;;;2.28;0.75;;;19.90;99.90;;;;;;5069229;28;20063;-57
2023/09/21 07:16:13;;;;;;;;;;;19.90;99.90;;;;;;5072297;28;20522;-57
2023/09/21 07:18:39;;;;;;;3.95;0.90;;;19.90;99.90;;;;;;5072167;28;19967;-57
2023/09/21 07:21:05;;;;;;;;;;;19.90;99.90;;;;;;5068138;28;20423;-55
2023/09/21 07:23:31;;;;;;;2.60;0.80;;;19.90;99.90;;;;;;5064935;28;19923;-56
2023/09/21 07:25:57;;;;;;;;;;;19.90;99.90;;;;;;5065781;28;20039;-56
2023/09/21 07:28:23;;;;;;;2.08;0.98;;;19.90;99.90;;;;;;5067489;28;19920;-56
2023/09/21 07:30:53;;;;;;;1.98;0.80;;;19.90;99.90;;;;;;5070894;28;20064;-57
2023/09/21 07:33:21;;;;;;;4.22;0.80;;;19.90;99.90;;;;;;5069804;28;20045;-56
2023/09/21 07:35:48;;;;;;;6.03;1.52;;;19.90;99.90;;;;;;5054035;28;20048;-56
2023/09/21 07:38:14;;;;;;;1.95;0.93;;;20.00;99.90;;;;;;5046583;28;20055;-56
2023/09/21 07:40:40;;;;;;;4.20;0.70;;;20.00;99.90;;;;;;5070390;28;20040;-57
2023/09/21 07:43:06;;;;;;;4.30;1.00;;;20.00;99.90;;;;;;5069970;28;20153;-57
2023/09/21 07:45:32;;;;;;;9.70;1.10;;;20.10;99.90;;;;;;5071346;28;20134;-57
2023/09/21 07:47:58;;;;;;;4.50;1.02;;;20.10;99.90;;;;;;5070639;28;20136;-57
2023/09/21 07:50:26;;;;;;;2.50;1.05;;;20.10;99.90;;;;;;5070787;28;20131;-57
2023/09/21 07:52:56;;;;;;;2.97;0.60;;;20.10;99.90;;;;;;5070864;28;20040;-57
2023/09/21 07:55:22;;;;;;;4.53;0.70;;;20.10;99.90;;;;;;5070585;28;20076;-57
2023/09/21 07:57:48;;;;;;;1.20;0.70;;;20.20;99.90;;;;;;5070848;28;20041;-57
2023/09/21 08:00:15;;;;;;;2.15;0.80;;;20.20;99.90;;;;;;5071033;28;20036;-57
2023/09/21 08:02:41;;;;;;;4.90;1.25;;;20.30;99.90;;;;;;5063755;28;20040;-58
2023/09/21 08:05:06;;;;;;;;;;;20.30;99.90;;;;;;5063041;28;20093;-57
2023/09/21 08:07:33;;;;;;;6.20;1.00;;;20.30;99.90;;;;;;5061960;28;19924;-57
2023/09/21 08:10:01;;;;;;;3.70;0.60;;;20.30;99.90;;;;;;5065794;28;20088;-56
2023/09/21 08:12:27;;;;;;;4.88;0.80;;;20.20;99.90;;;;;;5070943;28;20482;-57
2023/09/21 08:14:53;;;;;;;2.42;0.95;;;20.20;99.90;;;;;;5070603;28;20040;-58
2023/09/21 08:17:19;;;;;;;2.50;1.00;;;20.20;99.90;;;;;;5070628;28;20036;-56
2023/09/21 08:19:46;;;;;;;1.63;0.65;;;20.10;99.90;;;;;;5070092;28;20094;-57
2023/09/21 08:22:12;;;;;;;2.88;1.02;;;20.10;99.90;;;;;;5065563;28;20112;-57
2023/09/21 08:24:41;;;;;;;6.03;1.02;;;20.10;99.90;;;;;;5063162;28;20471;-57
2023/09/21 08:27:07;;;;;;;5.25;1.17;;;20.00;99.90;;;;;;5062000;28;20402;-57
2023/09/21 08:29:33;;;;;;;3.60;1.13;;;20.00;99.90;;;;;;5062350;28;20075;-57
2023/09/21 08:31:58;;;;;;;5.38;1.27;;;20.00;99.90;;;;;;5063316;28;20048;-57
2023/09/21 08:34:24;;;;;;;4.97;1.10;;;20.00;99.90;;;;;;5070461;28;20040;-57
2023/09/21 08:36:50;;;;;;;3.20;1.13;;;19.80;99.90;;;;;;5070273;28;20123;-57
2023/09/21 08:39:16;;;;;;;;;;;19.80;99.90;;;;;;5070697;28;20062;-58
2023/09/21 08:41:48;;;;;;;3.28;1.45;;;19.70;99.90;;;;;;5070217;28;19917;-57
2023/09/21 08:44:14;;;;;;;4.65;0.90;;;19.70;99.90;;;;;;5069279;28;20572;-58
2023/09/21 08:46:40;;;;;;;;;;;19.70;99.90;;;;;;5070698;28;20036;-57
2023/09/21 08:49:09;;;;;;;2.00;0.95;;;19.60;99.90;;;;;;5069750;28;20302;-58
2023/09/21 08:51:39;;;;;;;1.70;0.93;;;19.60;99.90;;;;;;5069892;28;20127;-57
2023/09/21 08:54:07;;;;;;;5.10;1.45;;;19.50;99.90;;;;;;5069787;28;20047;-58
2023/09/21 08:56:36;;;;;;;5.10;1.23;;;19.40;99.90;;;;;;5069244;28;20131;-58
2023/09/21 08:59:03;;;;;;;3.50;1.00;;;19.40;99.90;;;;;;5069414;28;20415;-58
2023/09/21 09:01:29;;;;;;;3.05;1.00;;;19.30;99.90;;;;;;5064794;28;20041;-55
2023/09/21 09:03:55;;;;;;;2.10;0.85;;;19.30;99.90;;;;;;5063073;28;20029;-57
2023/09/21 09:06:20;;;;;;;3.20;1.00;;;19.20;99.90;;;;;;5061539;28;20108;-57
2023/09/21 09:08:47;;;;;;;2.90;1.05;;;19.20;99.90;;;;;;5062911;28;20178;-58
2023/09/21 09:11:39;;;;;;;1.50;0.93;;;19.10;99.90;;;;;;5051549;28;20045;-58
2023/09/21 09:14:18;;;;;;;1.48;0.98;;;19.00;99.90;;;;;;5069750;28;20106;-57
2023/09/21 09:16:44;;;;;;;2.22;0.88;;;19.00;99.90;;;;;;5069628;28;20407;-56
2023/09/21 09:19:11;;;;;;;3.92;1.13;;;19.00;99.90;;;;;;5069168;28;20083;-56
2023/09/21 09:21:37;;;;;;;4.60;1.20;;;18.90;99.90;;;;;;5068168;28;20065;-57
2023/09/21 09:24:04;;;;;;;;;;;18.80;99.90;;;;;;5069170;28;20066;-57
2023/09/21 09:26:30;;;;;;;3.40;1.10;;;18.80;99.90;;;;;;5068149;28;19916;-56
2023/09/21 09:29:07;;;;;;;2.72;1.27;;;18.70;99.90;;;;;;5068959;28;20507;-57
2023/09/21 09:31:35;;;;;;;2.90;1.40;;;18.70;99.90;;;;;;5069413;28;20069;-56
2023/09/21 09:34:04;;;;;;;2.17;1.02;;;18.60;99.90;;;;;;5069072;28;20456;-57
2023/09/21 09:36:33;;;;;;;2.90;1.35;;;18.60;99.90;;;;;;5067431;28;20044;-57
2023/09/21 09:39:07;;;;;;;3.38;1.38;;;18.60;99.90;;;;;;5068699;28;20526;-56
2023/09/21 09:41:37;;;;;;;5.20;1.50;;;18.60;99.90;;;;;;5069379;28;20455;-56
2023/09/21 09:44:07;;;;;;;3.50;1.60;;;18.50;99.90;;;;;;5069381;28;20048;-57
2023/09/21 09:46:37;;;;;;;3.55;1.17;;;18.50;99.90;;;;;;5069122;28;20052;-57
2023/09/21 09:49:05;;;;;;;3.60;2.03;;;18.50;99.90;;;;;;5052546;28;20040;-56
2023/09/21 09:51:41;;;;;;;3.03;1.48;;;18.50;99.90;;;;;;5054635;28;20041;-55
2023/09/21 09:54:09;;;;;;;3.15;1.73;;;18.50;99.90;;;;;;5054000;28;20037;-54
2023/09/21 09:56:41;;;;;;;3.40;1.60;;;18.50;99.90;;;;;;5050320;28;20130;-54
2023/09/21 09:59:11;;;;;;;4.22;1.67;;;18.50;99.90;;;;;;5054725;28;20044;-54
2023/09/21 10:01:44;;;;;;;2.25;1.65;;;18.50;99.90;;;;;;5056202;28;20189;-53
2023/09/21 10:04:10;;;;;;;3.20;2.20;;;18.50;99.90;;;;;;5056432;28;20036;-56
2023/09/21 10:06:36;;;;;;;3.63;1.48;;;18.50;99.90;;;;;;5055271;28;20491;-54
2023/09/21 10:09:11;;;;;;;5.95;2.53;;;18.50;99.90;;;;;;5053095;28;20430;-56
2023/09/21 10:11:39;;;;;;;4.88;2.20;;;18.50;99.90;;;;;;5057520;28;20033;-55
2023/09/21 10:14:07;;;;;;;7.75;2.35;;;18.50;99.90;;;;;;5058243;28;20708;-55
2023/09/21 10:16:38;;;;;;;3.10;1.80;;;18.40;99.90;;;;;;5058407;28;20048;-55
2023/09/21 10:19:06;;;;;;;6.70;2.28;;;18.40;99.90;;;;;;5057437;28;20079;-56
2023/09/21 10:21:35;;;;;;;3.95;2.20;;;18.40;99.90;;;;;;5061498;28;20033;-54
2023/09/21 10:24:13;;;;;;;3.25;2.47;;;18.40;99.90;;;;;;5061349;28;20032;-55
2023/09/21 10:26:45;;;;;;;5.65;2.28;;;18.40;99.90;;;;;;5054975;28;20064;-56
2023/09/21 10:29:15;;;;;;;2.72;1.75;;;18.40;99.90;;;;;;5056142;28;20032;-54
2023/09/21 10:31:45;;;;;;;4.93;2.50;;;18.40;99.90;;;;;;5053987;28;20399;-56
2023/09/21 10:34:18;;;;;;;3.53;2.60;;;18.40;99.90;;;;;;5056771;28;20046;-56
2023/09/21 10:36:50;;;;;;;5.13;2.67;;;18.30;99.90;;;;;;5059737;28;20120;-55
2023/09/21 10:39:24;;;;;;;5.68;2.63;;;18.30;99.90;;;;;;5060150;28;20036;-57
2023/09/21 10:42:12;;;;;;;4.85;2.78;;;18.30;99.90;;;;;;5055967;28;20501;-56
2023/09/21 10:44:58;;;;;;;5.10;2.65;;;18.20;99.90;;;;;;5045804;28;20131;-54
2023/09/21 10:47:32;;;;;;;7.10;2.67;;;18.30;99.90;;;;;;5056543;28;20090;-55
2023/09/21 10:50:04;;;;;;;5.03;3.15;;;18.20;99.90;;;;;;5059507;28;20102;-51
2023/09/21 10:52:31;;;;;;;4.07;3.17;;;18.20;99.90;;;;;;5059930;28;20060;-52
2023/09/21 10:54:57;;;;;;;5.25;3.05;;;18.20;99.90;;;;;;5058912;28;20114;-51
2023/09/21 10:57:24;;;;;;;3.97;2.60;;;18.20;99.90;;;;;;5060373;28;20064;-55
2023/09/21 10:59:52;;;;;;;4.13;2.28;;;18.30;99.90;;;;;;5053051;28;20041;-51
2023/09/21 11:02:21;;;;;;;4.10;2.45;;;18.30;99.90;;;;;;5055719;28;20037;-54
2023/09/21 11:04:48;;;;;;;5.82;3.03;;;18.40;99.90;;;;;;5053164;28;20111;-55
2023/09/21 11:07:17;;;;;;;3.28;2.75;;;18.40;99.90;;;;;;5056873;28;20041;-56
2023/09/21 11:09:43;;;;;;;5.20;2.30;;;18.50;99.90;;;;;;5056717;28;20036;-57
2023/09/21 11:12:13;;;;;;;4.13;2.72;;;18.50;99.90;;;;;;5057919;28;20402;-54
2023/09/21 11:14:43;;;;;;;4.60;2.72;;;18.50;99.90;;;;;;5048556;28;20122;-55
2023/09/21 11:17:19;;;;;;;4.32;2.40;;;18.50;99.90;;;;;;5050835;28;20036;-54
2023/09/21 11:19:46;;;;;;;3.87;2.30;;;18.50;99.90;;;;;;5052854;28;20036;-55
2023/09/21 11:22:15;;;;;;;2.42;2.17;;;18.50;99.90;;;;;;5049818;28;20028;-53
2023/09/21 11:24:42;;;;;;;3.85;2.70;;;18.60;99.90;;;;;;5050079;28;20044;-54
2023/09/21 11:27:11;;;;;;;4.90;2.88;;;18.60;99.90;;;;;;5033701;28;20048;-55
2023/09/21 11:29:39;;;;;;;6.28;3.03;;;18.60;99.90;;;;;;5052676;28;20140;-54
2023/09/21 11:32:17;;;;;;;12.15;3.58;;;18.70;99.90;;;;;;5057560;28;20051;-54
2023/09/21 11:34:44;;;;;;;8.18;2.97;;;18.70;99.90;;;;;;5055680;28;20041;-55
2023/09/21 11:37:11;;;;;;;2.85;1.60;;;18.70;99.90;;;;;;5059267;28;20037;-51
2023/09/21 11:39:38;;;;;;;3.88;2.03;;;18.70;99.90;;;;;;5059309;28;20347;-54
2023/09/21 11:42:06;;;;;;;4.82;1.52;;;18.60;99.90;;;;;;5049940;28;20049;-52
2023/09/21 11:44:35;;;;;;;2.63;1.67;;;18.60;99.90;;;;;;5046299;28;20033;-54
2023/09/21 11:47:01;;;;;;;3.13;1.30;;;18.50;99.90;;;;;;5055417;28;20047;-56
2023/09/21 11:49:41;;;;;;;4.15;1.00;;;18.50;99.90;;;;;;5053056;28;20049;-54
2023/09/21 11:52:09;;;;;;;2.75;0.90;;;18.50;99.90;;;;;;5058757;28;20095;-55
2023/09/21 11:54:36;;;;;;;1.80;1.02;;;18.40;99.90;;;;;;5052370;28;20037;-53
2023/09/21 11:57:06;;;;;;;4.47;1.85;;;18.40;99.90;;;;;;5058233;28;20036;-54
2023/09/21 11:59:39;;;;;;;1.42;0.93;;;18.40;99.90;;;;;;5060236;28;20045;-53
2023/09/21 12:02:09;;;;;;;3.05;1.25;;;18.50;99.90;;;;;;5053774;28;20036;-56
2023/09/21 12:04:36;;;;;;;0.80;0.70;;;18.50;99.90;;;;;;5050227;28;20068;-56
2023/09/21 12:07:01;;;;;;;1.67;0.90;;;18.60;99.90;;;;;;5054904;28;20072;-56
2023/09/21 12:09:27;;;;;;;1.27;0.95;;;18.60;99.90;;;;;;5050851;28;20084;-56
2023/09/21 12:11:54;;;;;;;2.70;1.00;;;18.60;99.90;;;;;;5054969;28;20056;-53
2023/09/21 12:14:23;;;;;;;2.95;1.23;;;18.60;99.90;;;;;;5054345;28;20071;-53
2023/09/21 12:16:50;;;;;;;3.08;0.80;;;18.70;99.90;;;;;;5055326;28;20572;-54
2023/09/21 12:19:19;;;;;;;2.13;0.88;;;18.70;99.90;;;;;;5058060;28;20040;-55
2023/09/21 12:21:46;;;;;;;6.70;1.63;;;18.80;99.90;;;;;;5057378;28;20032;-55
2023/09/21 12:24:12;;;;;;;2.30;0.95;;;18.90;99.90;;;;;;5057252;28;20041;-55
2023/09/21 12:26:38;;;;;;;3.17;1.02;;;19.00;99.90;;;;;;5053614;28;20043;-56
2023/09/21 12:29:04;;;;;;;1.45;1.30;;;19.00;99.90;;;;;;5062216;28;20049;-56
2023/09/21 12:31:29;;;;;;;2.08;0.95;;;18.90;99.90;;;;;;5052456;28;20138;-52
2023/09/21 12:33:55;;;;;;;;;;;18.90;99.90;;;;;;5053273;28;20044;-53
2023/09/21 12:36:23;;;;;;;0.82;0.80;;;19.00;99.90;;;;;;5055208;28;19916;-55
2023/09/21 12:38:50;;;;;;;1.15;0.70;;;18.90;99.90;;;;;;5055687;28;20134;-54
2023/09/21 12:41:17;;;;;;;0.90;0.55;;;18.80;99.90;;;;;;5056827;28;20521;-54
2023/09/21 12:43:43;;;;;;;0.95;0.47;;;18.70;99.90;;;;;;5055464;28;20060;-56
2023/09/21 12:46:09;;;;;;;0.63;0.32;;;18.70;99.90;;;;;;5054125;28;20082;-54
2023/09/21 12:48:36;;;;;;;;;;;18.60;99.90;;;;;;5052176;28;20050;-52
2023/09/21 12:51:03;;;;;;;0.88;0.32;;;18.50;99.90;;;;;;5055584;28;19921;-52
2023/09/21 12:53:29;;;;;;;2.03;0.20;;;18.50;99.90;;;;;;5053919;28;20415;-57
2023/09/21 12:55:55;;;;;;;0.55;0.20;;;18.50;99.90;;;;;;5050968;28;20033;-56
2023/09/21 12:58:21;;;;;;;1.10;0.20;;;18.50;99.90;;;;;;5051851;28;20507;-56